Time;durP1;ratioP1;P1;durP2;ratioP2;P2;SDS_P1;SDS_P2;PMS_P1;PMS_P2;Temp;Humidity;BMP_temperature;BMP_pressure;BME280_temperature;BME280_humidity;BME280_pressure;Samples;Min_cycle;Max_cycle;Signal;HPM_P1;HPM_P2
2023/11/28 00:00:39;;;;;;;23.30;18.38;;;0.50;1.00;;;;;;5060505;28;20233;-72
2023/11/28 00:03:06;;;;;;;24.33;17.38;;;0.50;1.00;;;;;;5053768;28;20237;-72
2023/11/28 00:05:33;;;;;;;19.58;16.55;;;0.60;1.00;;;;;;5067886;28;21096;-75
2023/11/28 00:08:00;;;;;;;22.58;18.00;;;0.60;1.00;;;;;;5066319;28;20244;-73
2023/11/28 00:10:27;;;;;;;22.70;16.55;;;0.50;1.00;;;;;;5049566;28;20722;-77
2023/11/28 00:12:56;;;;;;;19.35;15.77;;;0.50;1.00;;;;;;5056382;28;21077;-77
2023/11/28 00:15:23;;;;;;;17.25;15.07;;;0.50;1.00;;;;;;5064282;28;20238;-77
2023/11/28 00:17:53;;;;;;;22.05;15.60;;;0.50;1.00;;;;;;5072036;28;20241;-78
2023/11/28 00:20:21;;;;;;;18.92;14.70;;;0.50;1.00;;;;;;5069681;28;20237;-77
2023/11/28 00:22:48;;;;;;;22.05;15.77;;;0.50;1.00;;;;;;5052734;28;20241;-78
2023/11/28 00:25:18;;;;;;;20.02;14.90;;;0.50;1.00;;;;;;5057208;28;20269;-77
2023/11/28 00:27:45;;;;;;;20.02;16.63;;;0.50;1.00;;;;;;5076209;28;21042;-78
2023/11/28 00:30:14;;;;;;;20.20;15.57;;;0.50;1.00;;;;;;5051106;28;20225;-78
2023/11/28 00:32:41;;;;;;;21.08;15.88;;;0.50;1.00;;;;;;5065476;28;20265;-78
2023/11/28 00:35:10;;;;;;;19.10;14.63;;;0.50;1.00;;;;;;5061448;28;20310;-75
2023/11/28 00:37:38;;;;;;;20.25;16.05;;;0.50;1.00;;;;;;5070695;28;20382;-78
2023/11/28 00:40:09;;;;;;;21.10;17.00;;;0.50;1.00;;;;;;5062327;28;20357;-76
2023/11/28 00:42:36;;;;;;;19.55;15.52;;;0.50;1.00;;;;;;5060834;28;22504;-75
2023/11/28 00:45:04;;;;;;;18.63;15.75;;;0.50;1.00;;;;;;5062138;28;20243;-79
2023/11/28 00:47:30;;;;;;;21.05;15.57;;;0.50;1.00;;;;;;5051459;28;20233;-77
2023/11/28 00:49:58;;;;;;;18.83;15.43;;;0.50;1.00;;;;;;5059769;28;20294;-77
2023/11/28 00:52:29;;;;;;;21.55;17.10;;;0.50;1.00;;;;;;5070382;28;20232;-77
2023/11/28 00:54:56;;;;;;;18.90;16.75;;;0.50;1.00;;;;;;5071971;28;20237;-77
2023/11/28 00:57:23;;;;;;;20.67;16.92;;;0.50;1.00;;;;;;5058642;28;20332;-75
2023/11/28 00:59:51;;;;;;;23.50;16.25;;;0.50;1.00;;;;;;5059807;28;20320;-77
2023/11/28 01:02:19;;;;;;;23.90;16.42;;;0.50;1.00;;;;;;5067422;28;20232;-75
2023/11/28 01:04:46;;;;;;;20.90;16.55;;;0.50;1.00;;;;;;5054899;28;20232;-77
2023/11/28 01:07:13;;;;;;;20.73;15.88;;;0.60;1.00;;;;;;5068150;28;20237;-77
2023/11/28 01:09:41;;;;;;;21.15;17.30;;;0.50;1.00;;;;;;5067387;28;20318;-78
2023/11/28 01:12:09;;;;;;;22.45;16.40;;;0.60;1.00;;;;;;5063090;28;20268;-76
2023/11/28 01:14:36;;;;;;;20.00;15.90;;;0.50;1.00;;;;;;5072674;28;20832;-73
2023/11/28 01:17:06;;;;;;;23.25;18.35;;;0.50;1.00;;;;;;5056348;28;20299;-78
2023/11/28 01:19:33;;;;;;;22.80;19.02;;;0.60;1.00;;;;;;5055054;28;20233;-77
2023/11/28 01:22:00;;;;;;;21.85;17.02;;;0.50;1.00;;;;;;5068430;28;20336;-78
2023/11/28 01:24:27;;;;;;;22.98;18.77;;;0.50;1.00;;;;;;5063319;28;20247;-75
2023/11/28 01:26:56;;;;;;;23.50;18.83;;;0.60;1.00;;;;;;5071131;28;20318;-78
2023/11/28 01:29:23;;;;;;;23.17;20.55;;;0.50;1.00;;;;;;5070869;28;20993;-77
2023/11/28 01:31:50;;;;;;;20.45;17.58;;;0.60;1.00;;;;;;5072790;28;20237;-78
2023/11/28 01:34:17;;;;;;;25.55;18.38;;;0.60;1.00;;;;;;5070107;28;20243;-76
2023/11/28 01:36:44;;;;;;;21.35;17.25;;;0.60;1.00;;;;;;5073708;28;21085;-79
2023/11/28 01:39:12;;;;;;;24.52;18.08;;;0.60;1.00;;;;;;5067798;28;20261;-77
2023/11/28 01:41:39;;;;;;;25.98;18.55;;;0.50;1.00;;;;;;5057574;28;20323;-76
2023/11/28 01:44:08;;;;;;;27.00;18.50;;;0.50;1.00;;;;;;5066946;28;20287;-76
2023/11/28 01:46:39;;;;;;;22.92;18.55;;;0.50;1.00;;;;;;5071215;28;20232;-76
2023/11/28 01:49:07;;;;;;;24.88;18.17;;;0.40;1.00;;;;;;5063197;28;20245;-75
2023/11/28 01:51:36;;;;;;;19.63;16.67;;;0.50;1.00;;;;;;5062126;28;20316;-77
2023/11/28 01:54:05;;;;;;;22.95;16.20;;;0.40;1.00;;;;;;5058443;28;20232;-76
2023/11/28 01:56:33;;;;;;;22.95;17.05;;;0.30;1.00;;;;;;5060921;28;20324;-76
2023/11/28 01:59:00;;;;;;;20.40;17.23;;;0.30;1.00;;;;;;5072132;28;20265;-76
2023/11/28 02:01:29;;;;;;;20.77;16.85;;;0.30;1.00;;;;;;5066946;28;20244;-76
2023/11/28 02:03:56;;;;;;;21.23;16.55;;;0.40;1.00;;;;;;5070957;28;20240;-76
2023/11/28 02:06:23;;;;;;;21.85;17.08;;;0.40;1.00;;;;;;5070825;28;20264;-77
2023/11/28 02:08:50;;;;;;;21.15;15.82;;;0.30;1.00;;;;;;5072358;28;21008;-78
2023/11/28 02:11:17;;;;;;;20.02;16.08;;;0.30;1.00;;;;;;5055391;28;20307;-75
2023/11/28 02:13:44;;;;;;;20.02;14.77;;;0.30;1.00;;;;;;5056701;28;20248;-76
2023/11/28 02:16:13;;;;;;;26.27;16.05;;;0.20;1.00;;;;;;5062166;28;20243;-76
2023/11/28 02:18:42;;;;;;;19.10;15.68;;;0.20;1.00;;;;;;5058012;28;20225;-76
2023/11/28 02:21:11;;;;;;;24.67;16.60;;;0.20;1.00;;;;;;5051866;28;20316;-76
2023/11/28 02:23:39;;;;;;;20.20;16.48;;;0.20;1.00;;;;;;5069788;28;20320;-75
2023/11/28 02:26:28;;;;;;;23.15;15.85;;;0.20;1.00;;;;;;5053486;28;20352;-76
2023/11/28 02:28:57;;;;;;;18.65;15.73;;;0.30;1.00;;;;;;5065428;28;20236;-75
2023/11/28 02:31:24;;;;;;;20.25;15.02;;;0.20;1.00;;;;;;5061293;28;20256;-76
2023/11/28 02:33:52;;;;;;;23.55;16.40;;;0.20;1.00;;;;;;5056720;28;20249;-76
2023/11/28 02:36:20;;;;;;;22.30;16.40;;;0.20;1.00;;;;;;5062105;28;20236;-81
2023/11/28 02:38:48;;;;;;;20.85;15.55;;;0.10;1.00;;;;;;5068442;28;20336;-75
2023/11/28 02:41:15;;;;;;;22.15;15.90;;;0.10;1.00;;;;;;5070474;28;21005;-74
2023/11/28 02:43:42;;;;;;;22.35;15.88;;;0.20;1.00;;;;;;5071704;28;20238;-77
2023/11/28 02:46:11;;;;;;;26.20;16.10;;;0.10;1.00;;;;;;5069100;28;20240;-76
2023/11/28 02:48:39;;;;;;;21.77;15.35;;;0.10;1.00;;;;;;5046060;28;20238;-76
2023/11/28 02:51:06;;;;;;;21.05;15.27;;;0.10;1.00;;;;;;5049842;28;21227;-76
2023/11/28 02:53:33;;;;;;;21.67;16.35;;;0.10;1.00;;;;;;5071024;28;20713;-77
2023/11/28 02:56:00;;;;;;;18.80;13.77;;;0.10;1.00;;;;;;5062213;28;21911;-75
2023/11/28 02:58:27;;;;;;;19.88;15.15;;;0.10;1.00;;;;;;5067029;28;20244;-76
2023/11/28 03:00:54;;;;;;;16.85;12.40;;;0.10;1.00;;;;;;5061195;28;21012;-76
2023/11/28 03:03:22;;;;;;;18.05;13.48;;;0.10;1.00;;;;;;5055205;28;20299;-77
2023/11/28 03:05:49;;;;;;;17.02;12.13;;;0.10;1.00;;;;;;5063655;28;20239;-75
2023/11/28 03:08:16;;;;;;;15.40;11.18;;;0.00;1.00;;;;;;5052560;28;20842;-76
2023/11/28 03:10:44;;;;;;;17.08;11.93;;;0.10;1.00;;;;;;5056222;28;20240;-75
2023/11/28 03:13:10;;;;;;;16.70;11.93;;;0.00;1.00;;;;;;5061105;28;22275;-76
2023/11/28 03:15:37;;;;;;;16.70;10.45;;;0.10;1.00;;;;;;5058482;28;20248;-76
2023/11/28 03:18:08;;;;;;;15.02;10.13;;;0.10;1.00;;;;;;5065641;28;20241;-76
2023/11/28 03:20:36;;;;;;;14.57;10.27;;;0.10;1.00;;;;;;5061357;28;20704;-78
2023/11/28 03:23:03;;;;;;;17.33;12.13;;;0.10;1.00;;;;;;5070031;28;20849;-82
2023/11/28 03:25:30;;;;;;;13.32;10.98;;;0.10;1.00;;;;;;5069541;28;20236;-77
2023/11/28 03:27:57;;;;;;;16.98;11.23;;;0.00;1.00;;;;;;5070165;28;20245;-77
2023/11/28 03:30:26;;;;;;;13.38;10.10;;;0.00;1.00;;;;;;5070851;28;20243;-74
2023/11/28 03:32:53;;;;;;;14.05;11.20;;;0.00;1.00;;;;;;5070405;28;20232;-77
2023/11/28 03:35:20;;;;;;;16.05;12.18;;;0.00;1.00;;;;;;5065938;28;21879;-76
2023/11/28 03:37:49;;;;;;;13.60;10.10;;;0.00;1.00;;;;;;5069458;28;20236;-76
2023/11/28 03:40:16;;;;;;;17.70;11.15;;;0.00;1.00;;;;;;5066449;28;20260;-73
2023/11/28 03:42:43;;;;;;;15.30;9.93;;;0.10;1.00;;;;;;5066222;28;20252;-71
2023/11/28 03:45:12;;;;;;;13.02;9.63;;;0.00;1.00;;;;;;5069135;28;20229;-69
2023/11/28 03:47:39;;;;;;;13.15;9.60;;;0.10;1.00;;;;;;5068673;28;20655;-73
2023/11/28 03:50:08;;;;;;;12.45;9.15;;;0.10;1.00;;;;;;5060697;28;20264;-72
2023/11/28 03:52:33;;;;;;;12.45;9.60;;;0.10;1.00;;;;;;5047837;28;20263;-69
2023/11/28 03:55:02;;;;;;;11.87;8.57;;;0.10;1.00;;;;;;5051525;28;20248;-74
2023/11/28 03:57:29;;;;;;;13.70;9.35;;;0.00;1.00;;;;;;5050750;28;20453;-70
2023/11/28 03:59:56;;;;;;;14.88;9.15;;;0.00;1.00;;;;;;5059576;28;20237;-70
2023/11/28 04:02:24;;;;;;;10.40;8.98;;;0.00;1.00;;;;;;5045905;28;20245;-72
2023/11/28 04:04:50;;;;;;;14.32;8.75;;;0.10;1.00;;;;;;5056173;28;20248;-70
2023/11/28 04:07:18;;;;;;;13.60;9.70;;;0.10;1.00;;;;;;5062391;28;20331;-73
2023/11/28 04:09:45;;;;;;;12.70;9.02;;;0.10;1.00;;;;;;5054426;28;20233;-73
2023/11/28 04:12:16;;;;;;;14.35;9.15;;;0.10;1.00;;;;;;5066196;28;20778;-71
2023/11/28 04:14:43;;;;;;;15.82;8.80;;;0.10;1.00;;;;;;5068136;28;20232;-73
2023/11/28 04:17:10;;;;;;;11.68;8.27;;;0.10;1.00;;;;;;5068288;28;20287;-72
2023/11/28 04:19:37;;;;;;;9.57;7.70;;;0.10;1.00;;;;;;5069434;28;20236;-70
2023/11/28 04:22:04;;;;;;;11.07;8.75;;;0.10;1.00;;;;;;5068592;28;20327;-70
2023/11/28 04:24:31;;;;;;;9.88;8.85;;;0.00;1.00;;;;;;5064324;28;20328;-69
2023/11/28 04:26:58;;;;;;;13.30;8.30;;;-0.10;1.00;;;;;;5060310;28;20284;-70
2023/11/28 04:29:26;;;;;;;11.88;8.05;;;-0.10;1.00;;;;;;5041525;28;20352;-69
2023/11/28 04:31:53;;;;;;;9.88;6.93;;;0.00;1.00;;;;;;5035871;28;20328;-71
2023/11/28 04:34:20;;;;;;;11.32;8.57;;;0.10;1.00;;;;;;5045948;28;20325;-70
2023/11/28 04:36:47;;;;;;;12.00;8.40;;;0.20;1.00;;;;;;5053134;28;20661;-70
2023/11/28 04:39:14;;;;;;;12.30;7.63;;;0.10;1.00;;;;;;5067657;28;20240;-71
2023/11/28 04:41:41;;;;;;;8.20;6.57;;;0.10;1.00;;;;;;5065014;28;20280;-71
2023/11/28 04:44:08;;;;;;;9.82;6.70;;;0.10;1.00;;;;;;5072883;28;21127;-72
2023/11/28 04:46:37;;;;;;;9.30;6.80;;;0.00;1.00;;;;;;5069872;28;20290;-70
2023/11/28 04:49:03;;;;;;;7.45;5.90;;;0.10;1.00;;;;;;5072732;28;20282;-70
2023/11/28 04:51:30;;;;;;;11.95;7.15;;;0.10;1.00;;;;;;5070931;28;20396;-75
2023/11/28 04:53:57;;;;;;;12.27;6.53;;;0.10;1.00;;;;;;5070594;28;20240;-71
2023/11/28 04:56:24;;;;;;;10.95;7.20;;;0.10;1.00;;;;;;5071952;28;20263;-71
2023/11/28 04:58:52;;;;;;;6.80;5.75;;;0.10;1.00;;;;;;5072246;28;20334;-71
2023/11/28 05:01:19;;;;;;;7.70;6.40;;;0.10;1.00;;;;;;5059064;28;20243;-71
2023/11/28 05:03:47;;;;;;;9.55;7.20;;;0.10;1.00;;;;;;5060061;28;20741;-70
2023/11/28 05:06:14;;;;;;;8.60;5.75;;;0.00;1.00;;;;;;5065301;28;20316;-71
2023/11/28 05:08:41;;;;;;;8.15;6.60;;;0.00;1.00;;;;;;5059677;28;20295;-70
2023/11/28 05:11:07;;;;;;;6.50;4.97;;;0.00;1.00;;;;;;5060190;28;20233;-73
2023/11/28 05:13:36;;;;;;;9.80;6.45;;;-0.10;1.00;;;;;;5056116;28;20295;-74
2023/11/28 05:16:03;;;;;;;8.40;5.78;;;0.00;1.00;;;;;;5051878;28;20248;-71
2023/11/28 05:18:33;;;;;;;11.00;7.03;;;0.00;1.00;;;;;;5059174;28;20763;-72
2023/11/28 05:21:01;;;;;;;7.07;5.47;;;0.00;1.00;;;;;;5061721;28;20800;-70
2023/11/28 05:23:28;;;;;;;8.25;5.50;;;0.00;1.00;;;;;;5059638;28;20864;-70
2023/11/28 05:25:55;;;;;;;9.50;6.13;;;0.00;1.00;;;;;;5068984;28;20245;-71
2023/11/28 05:28:25;;;;;;;8.35;6.10;;;0.00;1.00;;;;;;5070428;28;20610;-73
2023/11/28 05:30:53;;;;;;;8.65;5.85;;;0.00;1.00;;;;;;5075481;28;21082;-70
2023/11/28 05:33:20;;;;;;;10.15;9.07;;;0.00;1.00;;;;;;5066981;28;20245;-70
2023/11/28 05:35:47;;;;;;;7.82;6.30;;;0.00;1.00;;;;;;5070537;28;20991;-75
2023/11/28 05:38:15;;;;;;;10.45;7.55;;;0.10;1.00;;;;;;5070373;28;20268;-78
2023/11/28 05:40:42;;;;;;;7.75;6.60;;;0.10;1.00;;;;;;5069191;28;20319;-74
2023/11/28 05:43:09;;;;;;;10.15;6.72;;;0.00;1.00;;;;;;5068162;28;20323;-72
2023/11/28 05:45:36;;;;;;;11.48;7.18;;;0.00;1.00;;;;;;5069344;28;20899;-76
2023/11/28 05:48:03;;;;;;;9.00;6.78;;;0.00;1.00;;;;;;5069770;28;20236;-72
2023/11/28 05:50:30;;;;;;;11.15;7.00;;;0.10;1.00;;;;;;5067719;28;20274;-73
2023/11/28 05:52:57;;;;;;;10.85;8.02;;;0.10;1.00;;;;;;5071129;28;20438;-73
2023/11/28 05:55:26;;;;;;;9.63;6.82;;;0.10;1.00;;;;;;5056854;28;20335;-73
2023/11/28 05:57:53;;;;;;;9.98;6.88;;;0.10;1.00;;;;;;5068302;28;20243;-73
2023/11/28 06:00:20;;;;;;;10.75;7.45;;;0.10;1.00;;;;;;5070420;28;20255;-76
2023/11/28 06:02:47;;;;;;;11.40;8.05;;;0.20;1.00;;;;;;5069845;28;20319;-75
2023/11/28 06:05:14;;;;;;;11.18;7.88;;;0.20;1.00;;;;;;5068098;28;20296;-76
2023/11/28 06:07:42;;;;;;;10.90;8.45;;;0.20;1.00;;;;;;5073744;28;20349;-76
2023/11/28 06:10:11;;;;;;;11.43;8.32;;;0.20;1.00;;;;;;5070981;28;20298;-75
2023/11/28 06:12:39;;;;;;;12.30;8.90;;;0.20;1.00;;;;;;5067666;28;20239;-77
2023/11/28 06:15:08;;;;;;;11.82;8.32;;;0.30;1.00;;;;;;5068729;28;20332;-76
2023/11/28 06:17:35;;;;;;;11.00;9.05;;;0.20;1.00;;;;;;5069456;28;20236;-73
2023/11/28 06:20:04;;;;;;;13.45;9.07;;;0.30;1.00;;;;;;5063768;28;20375;-77
2023/11/28 06:22:31;;;;;;;11.00;8.60;;;0.20;1.00;;;;;;5069183;28;20256;-76
2023/11/28 06:24:58;;;;;;;15.57;10.00;;;0.30;1.00;;;;;;5072621;28;20709;-74
2023/11/28 06:27:25;;;;;;;13.65;9.85;;;0.30;1.00;;;;;;5069512;28;20322;-76
2023/11/28 06:29:56;;;;;;;14.85;9.80;;;0.30;1.00;;;;;;5070965;28;20255;-74
2023/11/28 06:32:23;;;;;;;11.82;10.10;;;0.40;1.00;;;;;;5070051;28;20336;-75
2023/11/28 06:34:50;;;;;;;16.10;9.95;;;0.40;1.00;;;;;;5070575;28;20240;-74
2023/11/28 06:37:17;;;;;;;11.88;9.10;;;0.30;1.00;;;;;;5056528;28;20332;-75
2023/11/28 06:39:47;;;;;;;14.48;9.60;;;0.30;1.00;;;;;;5058391;28;20323;-75
2023/11/28 06:42:15;;;;;;;11.98;10.20;;;0.30;1.00;;;;;;5058658;28;20443;-75
2023/11/28 06:44:43;;;;;;;12.88;9.30;;;0.30;1.00;;;;;;5050432;28;20343;-75
2023/11/28 06:47:12;;;;;;;12.25;8.60;;;0.40;1.00;;;;;;5052158;28;20327;-75
2023/11/28 06:49:39;;;;;;;13.98;10.15;;;0.50;1.00;;;;;;5059371;28;20294;-77
2023/11/28 06:52:06;;;;;;;13.32;9.45;;;0.50;1.00;;;;;;5056837;28;20249;-76
2023/11/28 06:54:34;;;;;;;14.90;10.10;;;0.60;1.00;;;;;;5060951;28;20229;-76
2023/11/28 06:57:01;;;;;;;17.30;11.27;;;0.60;1.00;;;;;;5068251;28;20304;-75
2023/11/28 06:59:27;;;;;;;15.35;10.05;;;0.50;1.00;;;;;;5066337;28;21134;-77
2023/11/28 07:01:55;;;;;;;16.73;11.57;;;0.50;1.00;;;;;;5065967;28;20315;-76
2023/11/28 07:04:23;;;;;;;15.20;12.10;;;0.50;1.00;;;;;;5068169;28;20242;-75
2023/11/28 07:06:51;;;;;;;15.60;11.00;;;0.60;1.00;;;;;;5062701;28;20295;-76
2023/11/28 07:09:18;;;;;;;15.55;11.23;;;0.60;1.00;;;;;;5056742;28;20771;-75
2023/11/28 07:11:45;;;;;;;16.05;12.05;;;0.60;1.00;;;;;;5074981;28;20301;-79
2023/11/28 07:14:12;;;;;;;18.15;11.93;;;0.50;1.00;;;;;;5066897;28;20303;-76
2023/11/28 07:16:39;;;;;;;14.73;11.98;;;0.50;1.00;;;;;;5054877;28;20244;-76
2023/11/28 07:19:09;;;;;;;19.30;15.00;;;0.60;1.00;;;;;;5053370;28;20241;-77
2023/11/28 07:21:38;;;;;;;18.98;13.88;;;0.60;1.00;;;;;;5057605;28;20238;-75
2023/11/28 07:24:05;;;;;;;20.00;15.30;;;0.60;1.00;;;;;;5060898;28;20982;-77
2023/11/28 07:26:32;;;;;;;17.52;13.15;;;0.60;1.00;;;;;;5054119;28;21050;-75
2023/11/28 07:28:59;;;;;;;18.48;14.65;;;0.60;1.00;;;;;;5056254;28;20232;-77
2023/11/28 07:31:28;;;;;;;17.70;13.18;;;0.60;1.00;;;;;;5051603;28;20241;-78
2023/11/28 07:33:55;;;;;;;19.50;14.35;;;0.60;1.00;;;;;;5067451;28;20228;-77
2023/11/28 07:36:22;;;;;;;18.35;13.90;;;0.50;1.00;;;;;;5069657;28;20681;-77
2023/11/28 07:38:51;;;;;;;23.80;15.38;;;0.60;1.00;;;;;;5068582;28;20248;-78
2023/11/28 07:41:18;;;;;;;21.65;16.17;;;0.50;1.00;;;;;;5069858;28;20241;-78
2023/11/28 07:43:45;;;;;;;21.95;16.60;;;0.50;1.00;;;;;;5059661;28;20237;-77
2023/11/28 07:46:12;;;;;;;23.63;17.02;;;0.60;1.00;;;;;;5050053;28;20423;-78
2023/11/28 07:48:40;;;;;;;23.60;16.48;;;0.60;1.00;;;;;;5058697;28;20256;-77
2023/11/28 07:51:09;;;;;;;24.17;16.63;;;0.60;1.00;;;;;;5060405;28;20344;-72
2023/11/28 07:53:35;;;;;;;30.27;18.48;;;0.60;1.00;;;;;;5049585;28;20236;-77
2023/11/28 07:56:05;;;;;;;23.83;16.58;;;0.60;1.00;;;;;;5052480;28;20295;-78
2023/11/28 07:58:33;;;;;;;27.77;18.98;;;0.70;1.00;;;;;;5049018;28;20238;-76
2023/11/28 08:01:00;;;;;;;25.55;17.30;;;0.80;1.00;;;;;;5057872;28;20235;-79
2023/11/28 08:03:28;;;;;;;24.67;17.40;;;0.80;1.00;;;;;;5070309;28;20336;-79
2023/11/28 08:05:55;;;;;;;30.15;18.23;;;0.90;1.00;;;;;;5074473;28;20241;-74
2023/11/28 08:08:23;;;;;;;25.42;16.77;;;0.90;1.00;;;;;;5070562;28;20233;-76
2023/11/28 08:10:50;;;;;;;24.88;17.42;;;1.00;1.00;;;;;;5060697;28;20289;-79
2023/11/28 08:13:18;;;;;;;22.25;16.95;;;1.10;1.00;;;;;;5046715;28;20241;-77
2023/11/28 08:15:46;;;;;;;24.27;16.75;;;1.20;1.00;;;;;;5056197;28;20866;-78
2023/11/28 08:18:13;;;;;;;25.25;16.98;;;1.20;1.00;;;;;;5071541;28;20291;-83
2023/11/28 08:20:40;;;;;;;23.35;17.50;;;1.10;1.00;;;;;;5069729;28;20233;-72
2023/11/28 08:23:07;;;;;;;23.20;17.30;;;1.20;1.00;;;;;;5059739;28;20269;-73
2023/11/28 08:25:34;;;;;;;23.70;16.25;;;1.10;1.00;;;;;;5056458;28;20336;-72
2023/11/28 08:28:01;;;;;;;23.25;16.13;;;1.20;1.00;;;;;;5061560;28;20244;-75
2023/11/28 08:30:31;;;;;;;22.92;18.08;;;1.30;1.00;;;;;;5059464;28;20244;-75
2023/11/28 08:32:58;;;;;;;23.25;16.63;;;1.40;1.00;;;;;;5051540;28;20267;-74
2023/11/28 08:35:25;;;;;;;25.52;18.15;;;1.40;1.00;;;;;;5055750;28;20713;-75
2023/11/28 08:37:52;;;;;;;26.38;16.13;;;1.40;1.00;;;;;;5052169;28;20243;-74
2023/11/28 08:40:19;;;;;;;23.00;17.10;;;1.50;1.00;;;;;;5057046;28;20230;-74
2023/11/28 08:42:47;;;;;;;24.70;18.15;;;1.50;1.00;;;;;;5067715;28;20339;-73
2023/11/28 08:45:15;;;;;;;25.55;17.08;;;1.50;1.00;;;;;;5059376;28;20290;-73
2023/11/28 08:47:43;;;;;;;22.80;16.40;;;1.50;1.00;;;;;;5069728;28;20237;-72
2023/11/28 08:50:12;;;;;;;24.30;15.95;;;1.50;1.00;;;;;;5066507;28;20347;-73
2023/11/28 08:52:39;;;;;;;24.90;16.77;;;1.50;1.00;;;;;;5045001;28;20348;-72
2023/11/28 08:55:07;;;;;;;25.20;16.85;;;1.50;1.00;;;;;;5052810;28;20244;-74
2023/11/28 08:57:34;;;;;;;20.50;16.88;;;1.50;1.00;;;;;;5069850;28;20236;-77
2023/11/28 09:00:02;;;;;;;22.50;15.93;;;1.50;1.00;;;;;;5053721;28;20613;-74
2023/11/28 09:02:29;;;;;;;20.52;15.55;;;1.50;1.00;;;;;;5056824;28;20247;-74
2023/11/28 09:04:58;;;;;;;21.77;16.00;;;1.50;1.00;;;;;;5058959;28;20321;-73
2023/11/28 09:07:25;;;;;;;21.13;16.10;;;1.50;1.00;;;;;;5051960;28;20958;-75
2023/11/28 09:09:52;;;;;;;23.92;17.08;;;1.50;1.00;;;;;;5062070;28;20248;-72
2023/11/28 09:12:19;;;;;;;24.67;16.85;;;1.60;1.00;;;;;;5066682;28;20228;-77
2023/11/28 09:14:47;;;;;;;22.92;17.05;;;1.60;1.00;;;;;;5046330;28;20733;-72
2023/11/28 09:17:14;;;;;;;22.27;16.17;;;1.70;1.00;;;;;;5047985;28;21121;-75
2023/11/28 09:19:41;;;;;;;21.23;17.55;;;1.80;1.00;;;;;;5052502;28;20747;-74
2023/11/28 09:22:12;;;;;;;23.23;16.27;;;1.80;1.00;;;;;;5061724;28;20244;-74
2023/11/28 09:24:39;;;;;;;22.98;16.25;;;1.90;1.00;;;;;;5054877;28;20840;-78
2023/11/28 09:27:07;;;;;;;22.40;15.05;;;1.90;1.00;;;;;;5068926;28;20243;-73
2023/11/28 09:29:37;;;;;;;19.88;15.45;;;1.90;1.00;;;;;;5068334;28;20236;-78
2023/11/28 09:32:04;;;;;;;23.35;15.98;;;1.80;1.00;;;;;;5075599;28;20232;-77
2023/11/28 09:34:32;;;;;;;21.75;15.50;;;1.70;1.00;;;;;;5068842;28;20244;-79
2023/11/28 09:37:01;;;;;;;19.15;15.45;;;1.70;1.00;;;;;;5088578;28;20256;-79
2023/11/28 09:39:29;;;;;;;20.88;14.55;;;1.60;1.00;;;;;;5076901;28;20239;-76
2023/11/28 09:41:59;;;;;;;20.08;15.68;;;1.60;1.00;;;;;;5075718;28;20248;-78
2023/11/28 09:44:35;;;;;;;22.48;14.98;;;1.70;1.00;;;;;;5072546;28;20240;-76
2023/11/28 09:47:07;;;;;;;20.02;14.45;;;1.70;1.00;;;;;;5064894;28;20243;-78
2023/11/28 09:49:42;;;;;;;19.33;15.25;;;1.70;1.00;;;;;;5068854;28;20233;-79
2023/11/28 09:52:09;;;;;;;18.73;14.10;;;1.80;1.00;;;;;;5069064;28;20228;-79
2023/11/28 09:54:42;;;;;;;21.05;16.02;;;1.90;1.00;;;;;;5065168;28;20249;-78
2023/11/28 09:57:11;;;;;;;20.02;16.25;;;1.90;1.00;;;;;;5071333;28;20245;-78
2023/11/28 09:59:39;;;;;;;19.27;14.43;;;2.00;1.00;;;;;;5071800;28;20350;-77
2023/11/28 10:02:06;;;;;;;18.80;14.00;;;2.00;1.00;;;;;;5054246;28;20238;-78
2023/11/28 10:04:36;;;;;;;21.77;16.27;;;2.00;1.00;;;;;;5060191;28;20302;-81
2023/11/28 10:07:06;;;;;;;19.77;15.10;;;2.00;1.00;;;;;;5077770;28;20372;-77
2023/11/28 10:09:34;;;;;;;19.70;15.65;;;1.90;1.00;;;;;;5075545;28;20233;-79
2023/11/28 10:12:06;;;;;;;17.33;14.18;;;1.90;1.00;;;;;;5078405;28;20394;-79
2023/11/28 10:14:34;;;;;;;22.95;14.93;;;2.00;1.00;;;;;;5072885;28;20247;-77
2023/11/28 10:17:03;;;;;;;17.40;14.15;;;2.10;1.00;;;;;;5077059;28;20755;-74
2023/11/28 10:19:31;;;;;;;21.30;15.90;;;2.10;1.00;;;;;;5073148;28;20756;-81
2023/11/28 10:21:58;;;;;;;21.10;15.32;;;2.10;1.00;;;;;;5053874;28;20240;-81
2023/11/28 10:24:28;;;;;;;18.10;13.70;;;2.10;1.00;;;;;;5074307;28;20236;-82
2023/11/28 10:26:57;;;;;;;20.10;13.13;;;2.10;1.00;;;;;;5066819;28;20235;-74
2023/11/28 10:29:30;;;;;;;17.80;15.52;;;2.10;1.00;;;;;;5072896;28;24583;-80
2023/11/28 10:31:58;;;;;;;23.30;16.85;;;2.10;1.00;;;;;;5083646;28;20224;-79
2023/11/28 10:34:26;;;;;;;21.65;13.85;;;2.00;1.00;;;;;;5080267;28;20247;-80
2023/11/28 10:36:53;;;;;;;20.35;14.80;;;2.00;1.00;;;;;;5079087;28;20772;-82
2023/11/28 10:39:21;;;;;;;18.67;13.93;;;2.00;1.00;;;;;;5059385;28;20225;-83
2023/11/28 10:41:49;;;;;;;20.63;14.13;;;2.10;1.00;;;;;;5053290;28;20240;-68
2023/11/28 10:44:17;;;;;;;15.10;11.35;;;2.20;1.00;;;;;;5052132;28;20308;-70
2023/11/28 10:46:50;;;;;;;19.23;13.20;;;2.20;1.00;;;;;;5058807;28;20324;-78
2023/11/28 10:49:17;;;;;;;16.90;13.50;;;2.20;1.00;;;;;;5067393;28;20240;-71
2023/11/28 10:51:44;;;;;;;16.05;12.70;;;2.10;1.00;;;;;;5056185;28;20315;-69
2023/11/28 10:54:13;;;;;;;15.80;12.98;;;2.20;1.00;;;;;;5047326;28;20284;-74
2023/11/28 10:56:47;;;;;;;16.77;12.10;;;2.30;1.00;;;;;;5069843;28;20260;-69
2023/11/28 10:59:24;;;;;;;17.52;13.07;;;2.30;1.00;;;;;;5069447;28;20220;-69
2023/11/28 11:01:55;;;;;;;17.17;13.18;;;2.30;1.00;;;;;;5069026;28;20344;-70
2023/11/28 11:04:22;;;;;;;17.50;13.43;;;2.30;1.00;;;;;;5061741;28;21030;-71
2023/11/28 11:06:58;;;;;;;18.75;13.35;;;2.40;1.00;;;;;;5053731;28;20233;-71
2023/11/28 11:09:27;;;;;;;15.07;12.32;;;2.40;1.00;;;;;;5056391;28;20921;-70
2023/11/28 11:11:57;;;;;;;15.77;13.35;;;2.40;1.00;;;;;;5052610;28;20236;-72
2023/11/28 11:14:37;;;;;;;20.02;12.70;;;2.50;1.00;;;;;;5067781;28;20371;-70
2023/11/28 11:17:14;;;;;;;15.32;11.85;;;2.50;1.00;;;;;;5066198;28;20245;-71
2023/11/28 11:19:45;;;;;;;16.20;13.20;;;2.60;1.00;;;;;;5051100;28;20244;-71
2023/11/28 11:22:15;;;;;;;14.38;12.60;;;2.60;1.00;;;;;;5069261;28;20770;-76
2023/11/28 11:24:43;;;;;;;16.52;13.10;;;2.60;1.00;;;;;;5064160;28;20243;-70
2023/11/28 11:27:10;;;;;;;14.50;11.70;;;2.60;1.00;;;;;;5054656;28;21055;-73
2023/11/28 11:29:40;;;;;;;17.67;13.55;;;2.60;1.00;;;;;;5056304;28;20457;-71
2023/11/28 11:32:12;;;;;;;18.83;12.75;;;2.50;1.00;;;;;;5056309;28;20220;-74
2023/11/28 11:34:42;;;;;;;14.80;11.18;;;2.50;1.00;;;;;;5049065;28;20314;-73
2023/11/28 11:37:14;;;;;;;13.65;11.90;;;2.60;1.00;;;;;;5059897;28;20315;-71
2023/11/28 11:39:42;;;;;;;19.83;13.20;;;2.90;1.00;;;;;;5057291;28;20565;-70
2023/11/28 11:42:10;;;;;;;14.85;10.50;;;3.10;1.00;;;;;;5069389;28;20240;-70
2023/11/28 11:44:41;;;;;;;15.68;11.00;;;3.20;1.00;;;;;;5067536;28;20240;-71
2023/11/28 11:47:17;;;;;;;14.60;11.82;;;3.20;1.00;;;;;;5053847;28;20244;-72
2023/11/28 11:49:45;;;;;;;14.98;11.45;;;3.20;1.00;;;;;;5059981;28;20782;-74
2023/11/28 11:52:14;;;;;;;13.52;11.02;;;3.10;1.00;;;;;;5063987;28;20234;-74
2023/11/28 11:54:41;;;;;;;13.70;11.45;;;3.00;1.00;;;;;;5066359;28;20295;-72
2023/11/28 11:57:09;;;;;;;16.05;12.98;;;3.00;1.00;;;;;;5054765;28;20303;-73
2023/11/28 11:59:37;;;;;;;14.40;11.80;;;3.00;1.00;;;;;;5059991;28;20380;-73
2023/11/28 12:02:05;;;;;;;15.68;12.30;;;2.80;1.00;;;;;;5047425;28;20237;-76
2023/11/28 12:04:34;;;;;;;15.02;12.35;;;2.90;1.00;;;;;;5050989;28;20736;-74
2023/11/28 12:07:03;;;;;;;14.82;12.15;;;2.80;1.00;;;;;;5062233;28;21044;-71
2023/11/28 12:09:30;;;;;;;16.27;13.23;;;2.70;1.00;;;;;;5050312;28;20260;-72
2023/11/28 12:11:57;;;;;;;14.07;11.50;;;2.80;1.00;;;;;;5065798;28;20324;-73
2023/11/28 12:14:24;;;;;;;16.35;12.02;;;2.90;1.00;;;;;;5058914;28;20237;-76
2023/11/28 12:16:52;;;;;;;12.30;11.07;;;3.30;1.00;;;;;;5066838;28;20310;-73
2023/11/28 12:19:19;;;;;;;16.17;12.23;;;3.40;1.00;;;;;;5066991;28;20716;-74
2023/11/28 12:21:48;;;;;;;14.50;10.68;;;3.30;1.00;;;;;;5049824;28;20249;-76
2023/11/28 12:24:16;;;;;;;15.93;12.57;;;3.20;1.00;;;;;;5056378;28;20320;-72
2023/11/28 12:26:43;;;;;;;15.25;11.75;;;3.00;1.00;;;;;;5069220;28;20323;-73
2023/11/28 12:29:12;;;;;;;17.80;11.85;;;3.00;1.00;;;;;;5070672;28;20241;-71
2023/11/28 12:31:39;;;;;;;15.20;11.85;;;2.90;1.00;;;;;;5067069;28;20270;-72
2023/11/28 12:34:08;;;;;;;13.95;10.15;;;3.00;1.00;;;;;;5063551;28;20241;-72
2023/11/28 12:36:37;;;;;;;12.18;9.90;;;2.90;1.00;;;;;;5068483;28;20236;-71
2023/11/28 12:39:06;;;;;;;13.63;10.82;;;2.80;1.00;;;;;;5069372;28;20287;-73
2023/11/28 12:41:35;;;;;;;16.48;11.45;;;2.90;1.00;;;;;;5069112;28;20277;-72
2023/11/28 12:44:04;;;;;;;11.77;10.57;;;3.10;1.00;;;;;;5057447;28;20239;-73
2023/11/28 12:46:33;;;;;;;14.18;12.00;;;3.60;1.00;;;;;;5067208;28;20241;-72
2023/11/28 12:49:01;;;;;;;12.45;10.52;;;3.70;1.00;;;;;;5060846;28;20325;-73
2023/11/28 12:51:30;;;;;;;17.77;11.80;;;3.70;1.00;;;;;;5066855;28;20689;-72
2023/11/28 12:54:02;;;;;;;12.10;10.13;;;4.30;1.00;;;;;;5064171;28;20395;-72